sensor_id;sensor_type;location;lat;lon;timestamp;temperature;humidity
21489;DHT22;10906;45.194;5.684;2024-03-23T06:00:46;12.30;99.90
21489;DHT22;10906;45.194;5.684;2024-03-23T06:03:39;11.80;99.90
21489;DHT22;10906;45.194;5.684;2024-03-23T06:06:40;12.30;99.90
21489;DHT22;10906;45.194;5.684;2024-03-23T06:09:24;12.40;99.90
21489;DHT22;10906;45.194;5.684;2024-03-23T06:12:09;12.40;99.90
21489;DHT22;10906;45.194;5.684;2024-03-23T06:14:54;12.50;99.90
21489;DHT22;10906;45.194;5.684;2024-03-23T06:17:41;12.50;99.90
21489;DHT22;10906;45.194;5.684;2024-03-23T06:20:26;12.70;99.90
21489;DHT22;10906;45.194;5.684;2024-03-23T06:23:11;12.70;99.90
21489;DHT22;10906;45.194;5.684;2024-03-23T06:25:57;12.70;99.90
21489;DHT22;10906;45.194;5.684;2024-03-23T06:28:47;12.80;99.90
21489;DHT22;10906;45.194;5.684;2024-03-23T06:31:32;12.80;99.90
21489;DHT22;10906;45.194;5.684;2024-03-23T06:34:17;12.90;99.90
21489;DHT22;10906;45.194;5.684;2024-03-23T06:37:01;12.90;99.90
21489;DHT22;10906;45.194;5.684;2024-03-23T06:39:47;12.90;99.90
21489;DHT22;10906;45.194;5.684;2024-03-23T06:42:31;12.90;99.90
21489;DHT22;10906;45.194;5.684;2024-03-23T06:45:16;13.00;99.90
21489;DHT22;10906;45.194;5.684;2024-03-23T06:48:03;13.00;99.90
21489;DHT22;10906;45.194;5.684;2024-03-23T06:50:47;13.20;99.90
21489;DHT22;10906;45.194;5.684;2024-03-23T06:53:32;13.30;99.90
21489;DHT22;10906;45.194;5.684;2024-03-23T06:56:17;13.50;99.90
21489;DHT22;10906;45.194;5.684;2024-03-23T06:59:01;13.50;99.90
21489;DHT22;10906;45.194;5.684;2024-03-23T07:01:46;13.70;99.90
21489;DHT22;10906;45.194;5.684;2024-03-23T07:04:30;13.70;99.90
21489;DHT22;10906;45.194;5.684;2024-03-23T07:07:19;13.70;99.90
21489;DHT22;10906;45.194;5.684;2024-03-23T07:41:10;13.50;99.90
21489;DHT22;10906;45.194;5.684;2024-03-23T07:43:58;13.50;99.90
21489;DHT22;10906;45.194;5.684;2024-03-23T07:47:06;13.50;99.90
21489;DHT22;10906;45.194;5.684;2024-03-23T07:50:00;14.00;99.90
21489;DHT22;10906;45.194;5.684;2024-03-23T07:52:45;13.50;99.90
21489;DHT22;10906;45.194;5.684;2024-03-23T07:55:36;13.50;99.90
21489;DHT22;10906;45.194;5.684;2024-03-23T07:58:24;13.50;99.90
21489;DHT22;10906;45.194;5.684;2024-03-23T08:01:45;13.50;99.90
21489;DHT22;10906;45.194;5.684;2024-03-23T08:04:33;13.60;99.90
21489;DHT22;10906;45.194;5.684;2024-03-23T08:07:30;13.80;99.90
21489;DHT22;10906;45.194;5.684;2024-03-23T08:10:19;13.70;99.90
21489;DHT22;10906;45.194;5.684;2024-03-23T08:13:04;13.70;99.90
21489;DHT22;10906;45.194;5.684;2024-03-23T08:15:47;13.80;99.90
21489;DHT22;10906;45.194;5.684;2024-03-23T08:18:32;13.80;99.90
21489;DHT22;10906;45.194;5.684;2024-03-23T08:21:29;14.00;99.90
21489;DHT22;10906;45.194;5.684;2024-03-23T08:24:23;14.00;99.90
21489;DHT22;10906;45.194;5.684;2024-03-23T08:29:53;13.90;99.90
21489;DHT22;10906;45.194;5.684;2024-03-23T08:36:22;13.80;99.90
21489;DHT22;10906;45.194;5.684;2024-03-23T08:39:06;13.70;99.90
21489;DHT22;10906;45.194;5.684;2024-03-23T08:45:35;13.10;99.90
21489;DHT22;10906;45.194;5.684;2024-03-23T08:51:39;13.60;99.90
21489;DHT22;10906;45.194;5.684;2024-03-23T08:54:24;13.30;99.90
21489;DHT22;10906;45.194;5.684;2024-03-23T08:57:26;13.30;99.90
21489;DHT22;10906;45.194;5.684;2024-03-23T09:00:14;13.20;99.90
21489;DHT22;10906;45.194;5.684;2024-03-23T09:03:05;13.40;99.90
21489;DHT22;10906;45.194;5.684;2024-03-23T09:05:55;13.40;99.90
21489;DHT22;10906;45.194;5.684;2024-03-23T09:08:40;13.40;99.90
21489;DHT22;10906;45.194;5.684;2024-03-23T09:11:25;13.50;99.90
21489;DHT22;10906;45.194;5.684;2024-03-23T09:14:30;13.60;99.90
21489;DHT22;10906;45.194;5.684;2024-03-23T09:26:04;13.30;99.90
21489;DHT22;10906;45.194;5.684;2024-03-23T09:32:05;13.50;99.90
21489;DHT22;10906;45.194;5.684;2024-03-23T09:35:10;13.50;99.90
21489;DHT22;10906;45.194;5.684;2024-03-23T09:45:40;13.40;99.10
21489;DHT22;10906;45.194;5.684;2024-03-23T09:48:30;14.20;99.30
21489;DHT22;10906;45.194;5.684;2024-03-23T09:51:17;14.70;98.20
21489;DHT22;10906;45.194;5.684;2024-03-23T09:54:01;15.20;97.80
21489;DHT22;10906;45.194;5.684;2024-03-23T09:57:09;15.60;93.90
21489;DHT22;10906;45.194;5.684;2024-03-23T10:00:14;16.60;96.30
21489;DHT22;10906;45.194;5.684;2024-03-23T10:03:52;15.30;94.00
21489;DHT22;10906;45.194;5.684;2024-03-23T10:07:33;15.60;92.80
21489;DHT22;10906;45.194;5.684;2024-03-23T10:10:45;15.20;93.00
21489;DHT22;10906;45.194;5.684;2024-03-23T10:13:35;15.30;94.90
21489;DHT22;10906;45.194;5.684;2024-03-23T10:16:30;15.50;94.50
21489;DHT22;10906;45.194;5.684;2024-03-23T10:19:31;16.00;93.90
21489;DHT22;10906;45.194;5.684;2024-03-23T10:22:22;16.20;92.30
21489;DHT22;10906;45.194;5.684;2024-03-23T10:25:23;16.40;92.70
21489;DHT22;10906;45.194;5.684;2024-03-23T10:28:08;16.50;92.30
21489;DHT22;10906;45.194;5.684;2024-03-23T10:30:56;16.70;91.70
21489;DHT22;10906;45.194;5.684;2024-03-23T10:33:47;16.20;91.40
21489;DHT22;10906;45.194;5.684;2024-03-23T10:36:32;16.00;91.10
21489;DHT22;10906;45.194;5.684;2024-03-23T10:39:18;17.20;91.00
21489;DHT22;10906;45.194;5.684;2024-03-23T10:42:09;17.40;90.80
21489;DHT22;10906;45.194;5.684;2024-03-23T11:18:22;18.00;81.10
21489;DHT22;10906;45.194;5.684;2024-03-23T11:21:07;18.10;81.70
21489;DHT22;10906;45.194;5.684;2024-03-23T11:23:52;18.10;80.50
21489;DHT22;10906;45.194;5.684;2024-03-23T11:26:39;18.30;80.20
21489;DHT22;10906;45.194;5.684;2024-03-23T11:29:26;18.40;79.50
21489;DHT22;10906;45.194;5.684;2024-03-23T11:32:17;18.50;78.60
21489;DHT22;10906;45.194;5.684;2024-03-23T11:35:01;18.60;76.10
21489;DHT22;10906;45.194;5.684;2024-03-23T11:37:53;18.60;77.10
21489;DHT22;10906;45.194;5.684;2024-03-23T11:40:48;18.00;75.00
21489;DHT22;10906;45.194;5.684;2024-03-23T11:43:33;18.70;73.40
21489;DHT22;10906;45.194;5.684;2024-03-23T11:46:24;18.80;73.50
21489;DHT22;10906;45.194;5.684;2024-03-23T11:49:22;18.80;72.30
21489;DHT22;10906;45.194;5.684;2024-03-23T11:52:09;18.70;70.00
21489;DHT22;10906;45.194;5.684;2024-03-23T11:55:03;18.60;72.20
21489;DHT22;10906;45.194;5.684;2024-03-23T11:57:50;19.00;69.60
21489;DHT22;10906;45.194;5.684;2024-03-23T12:00:35;19.00;70.50
21489;DHT22;10906;45.194;5.684;2024-03-23T12:03:19;19.00;69.30
21489;DHT22;10906;45.194;5.684;2024-03-23T12:06:27;18.90;69.40
21489;DHT22;10906;45.194;5.684;2024-03-23T12:09:14;19.20;69.10
21489;DHT22;10906;45.194;5.684;2024-03-23T12:18:06;19.30;66.60
21489;DHT22;10906;45.194;5.684;2024-03-23T12:20:50;19.30;62.90
21489;DHT22;10906;45.194;5.684;2024-03-23T12:23:35;19.20;65.00
21489;DHT22;10906;45.194;5.684;2024-03-23T12:26:20;19.40;64.60
21489;DHT22;10906;45.194;5.684;2024-03-23T12:29:04;19.40;63.70
21489;DHT22;10906;45.194;5.684;2024-03-23T12:31:49;19.50;64.10
21489;DHT22;10906;45.194;5.684;2024-03-23T12:34:37;19.60;62.50
21489;DHT22;10906;45.194;5.684;2024-03-23T12:38:26;19.70;62.10
21489;DHT22;10906;45.194;5.684;2024-03-23T12:41:14;19.60;60.80
21489;DHT22;10906;45.194;5.684;2024-03-23T12:44:03;19.70;61.60
21489;DHT22;10906;45.194;5.684;2024-03-23T12:46:47;19.80;61.40
21489;DHT22;10906;45.194;5.684;2024-03-23T13:05:27;19.30;59.90
21489;DHT22;10906;45.194;5.684;2024-03-23T13:08:28;19.30;58.80
21489;DHT22;10906;45.194;5.684;2024-03-23T13:11:13;19.50;59.40
21489;DHT22;10906;45.194;5.684;2024-03-23T13:13:58;19.50;58.80
21489;DHT22;10906;45.194;5.684;2024-03-23T13:16:42;19.50;58.10
21489;DHT22;10906;45.194;5.684;2024-03-23T13:19:27;19.30;58.30
21489;DHT22;10906;45.194;5.684;2024-03-23T13:22:14;19.50;58.50
21489;DHT22;10906;45.194;5.684;2024-03-23T13:24:59;19.60;58.00
21489;DHT22;10906;45.194;5.684;2024-03-23T13:27:44;19.50;58.00
21489;DHT22;10906;45.194;5.684;2024-03-23T13:30:29;19.60;58.30
21489;DHT22;10906;45.194;5.684;2024-03-23T13:33:13;19.70;58.90
21489;DHT22;10906;45.194;5.684;2024-03-23T13:35:58;19.80;57.50
21489;DHT22;10906;45.194;5.684;2024-03-23T13:38:42;19.90;57.20
21489;DHT22;10906;45.194;5.684;2024-03-23T13:41:27;19.90;57.00
21489;DHT22;10906;45.194;5.684;2024-03-23T13:44:13;19.10;55.90
21489;DHT22;10906;45.194;5.684;2024-03-23T13:46:58;19.70;56.20
21489;DHT22;10906;45.194;5.684;2024-03-23T13:50:02;19.70;56.90
21489;DHT22;10906;45.194;5.684;2024-03-23T13:52:47;19.70;56.60
21489;DHT22;10906;45.194;5.684;2024-03-23T13:55:32;19.80;56.30
21489;DHT22;10906;45.194;5.684;2024-03-23T13:58:17;19.70;56.30
21489;DHT22;10906;45.194;5.684;2024-03-23T14:01:01;19.70;56.10
21489;DHT22;10906;45.194;5.684;2024-03-23T14:03:46;19.80;55.30
21489;DHT22;10906;45.194;5.684;2024-03-23T14:06:30;19.80;55.70
21489;DHT22;10906;45.194;5.684;2024-03-23T14:09:15;19.90;54.90
21489;DHT22;10906;45.194;5.684;2024-03-23T14:12:04;19.90;55.10
21489;DHT22;10906;45.194;5.684;2024-03-23T14:14:50;19.80;54.20
21489;DHT22;10906;45.194;5.684;2024-03-23T14:17:35;19.90;55.30
21489;DHT22;10906;45.194;5.684;2024-03-23T14:20:21;20.00;54.40
21489;DHT22;10906;45.194;5.684;2024-03-23T14:23:06;20.20;54.70
21489;DHT22;10906;45.194;5.684;2024-03-23T14:25:53;20.10;52.70
21489;DHT22;10906;45.194;5.684;2024-03-23T14:28:37;20.10;53.20
21489;DHT22;10906;45.194;5.684;2024-03-23T14:31:22;20.10;52.90
21489;DHT22;10906;45.194;5.684;2024-03-23T14:34:07;20.00;53.40
21489;DHT22;10906;45.194;5.684;2024-03-23T14:36:52;20.00;52.10
21489;DHT22;10906;45.194;5.684;2024-03-23T14:39:36;20.30;52.70
21489;DHT22;10906;45.194;5.684;2024-03-23T14:42:23;20.30;52.50
21489;DHT22;10906;45.194;5.684;2024-03-23T14:45:10;20.30;51.70
21489;DHT22;10906;45.194;5.684;2024-03-23T14:47:55;20.60;52.40
21489;DHT22;10906;45.194;5.684;2024-03-23T14:50:43;20.50;51.30
21489;DHT22;10906;45.194;5.684;2024-03-23T14:53:27;20.50;51.20
21489;DHT22;10906;45.194;5.684;2024-03-23T14:56:13;20.30;50.40
21489;DHT22;10906;45.194;5.684;2024-03-23T14:59:00;20.20;51.00
21489;DHT22;10906;45.194;5.684;2024-03-23T15:01:44;20.30;50.60
21489;DHT22;10906;45.194;5.684;2024-03-23T15:04:29;20.30;50.40
21489;DHT22;10906;45.194;5.684;2024-03-23T15:07:13;20.30;49.90
21489;DHT22;10906;45.194;5.684;2024-03-23T15:09:58;20.40;49.70
21489;DHT22;10906;45.194;5.684;2024-03-23T15:12:42;20.50;51.10
21489;DHT22;10906;45.194;5.684;2024-03-23T15:15:27;20.60;49.70
21489;DHT22;10906;45.194;5.684;2024-03-23T15:18:12;20.70;49.20
21489;DHT22;10906;45.194;5.684;2024-03-23T15:21:00;20.80;50.00
21489;DHT22;10906;45.194;5.684;2024-03-23T15:23:46;20.90;49.90
21489;DHT22;10906;45.194;5.684;2024-03-23T15:26:32;21.10;49.20
21489;DHT22;10906;45.194;5.684;2024-03-23T15:29:17;21.00;48.70
21489;DHT22;10906;45.194;5.684;2024-03-23T15:32:01;21.10;49.40
21489;DHT22;10906;45.194;5.684;2024-03-23T15:34:46;21.30;49.30
21489;DHT22;10906;45.194;5.684;2024-03-23T15:37:31;21.50;48.70
21489;DHT22;10906;45.194;5.684;2024-03-23T15:40:15;21.70;48.90
21489;DHT22;10906;45.194;5.684;2024-03-23T15:43:00;21.80;48.40
21489;DHT22;10906;45.194;5.684;2024-03-23T15:45:54;21.80;47.50
21489;DHT22;10906;45.194;5.684;2024-03-23T15:48:38;21.90;47.10
21489;DHT22;10906;45.194;5.684;2024-03-23T15:51:32;22.00;47.20
21489;DHT22;10906;45.194;5.684;2024-03-23T15:54:18;22.00;47.70
21489;DHT22;10906;45.194;5.684;2024-03-23T15:57:06;22.00;47.00
21489;DHT22;10906;45.194;5.684;2024-03-23T16:03:50;22.10;46.90
21489;DHT22;10906;45.194;5.684;2024-03-23T16:06:35;21.70;47.90
21489;DHT22;10906;45.194;5.684;2024-03-23T16:09:19;21.40;47.10
21489;DHT22;10906;45.194;5.684;2024-03-23T16:12:06;21.10;46.80
21489;DHT22;10906;45.194;5.684;2024-03-23T16:14:59;20.80;46.80
21489;DHT22;10906;45.194;5.684;2024-03-23T16:18:10;20.30;47.50
21489;DHT22;10906;45.194;5.684;2024-03-23T16:21:01;19.80;47.20
21489;DHT22;10906;45.194;5.684;2024-03-23T16:23:49;18.10;46.40
21489;DHT22;10906;45.194;5.684;2024-03-23T16:26:34;18.10;47.80
21489;DHT22;10906;45.194;5.684;2024-03-23T16:29:18;17.50;48.30
21489;DHT22;10906;45.194;5.684;2024-03-23T16:32:03;17.20;48.80
21489;DHT22;10906;45.194;5.684;2024-03-23T16:34:47;16.80;49.20
21489;DHT22;10906;45.194;5.684;2024-03-23T16:37:32;16.50;49.30
21489;DHT22;10906;45.194;5.684;2024-03-23T16:40:19;16.30;49.90
21489;DHT22;10906;45.194;5.684;2024-03-23T16:43:07;16.00;49.40
21489;DHT22;10906;45.194;5.684;2024-03-23T16:46:02;15.90;50.30
21489;DHT22;10906;45.194;5.684;2024-03-23T16:48:47;15.70;49.80
21489;DHT22;10906;45.194;5.684;2024-03-23T16:51:32;15.60;50.20
21489;DHT22;10906;45.194;5.684;2024-03-23T16:54:19;15.50;50.60
21489;DHT22;10906;45.194;5.684;2024-03-23T16:57:39;15.30;50.20
21489;DHT22;10906;45.194;5.684;2024-03-23T17:00:41;15.10;50.40
21489;DHT22;10906;45.194;5.684;2024-03-23T17:03:52;15.50;50.90
21489;DHT22;10906;45.194;5.684;2024-03-23T17:06:41;15.00;51.20
21489;DHT22;10906;45.194;5.684;2024-03-23T17:09:25;13.80;50.10
21489;DHT22;10906;45.194;5.684;2024-03-23T17:12:10;14.80;50.50
21489;DHT22;10906;45.194;5.684;2024-03-23T17:14:54;14.60;50.80
21489;DHT22;10906;45.194;5.684;2024-03-23T17:17:38;14.50;50.80
21489;DHT22;10906;45.194;5.684;2024-03-23T17:20:23;14.40;50.80
21489;DHT22;10906;45.194;5.684;2024-03-23T17:23:07;14.30;51.50
21489;DHT22;10906;45.194;5.684;2024-03-23T17:25:52;14.20;51.80
21489;DHT22;10906;45.194;5.684;2024-03-23T17:28:36;14.20;51.60
21489;DHT22;10906;45.194;5.684;2024-03-23T17:31:30;14.10;51.90
21489;DHT22;10906;45.194;5.684;2024-03-23T17:38:34;13.00;52.40
21489;DHT22;10906;45.194;5.684;2024-03-23T17:41:21;14.00;52.70
21489;DHT22;10906;45.194;5.684;2024-03-23T17:44:05;13.90;52.50
21489;DHT22;10906;45.194;5.684;2024-03-23T17:46:50;13.90;53.00
21489;DHT22;10906;45.194;5.684;2024-03-23T17:49:35;13.90;53.30
21489;DHT22;10906;45.194;5.684;2024-03-23T17:52:19;13.80;53.50
21489;DHT22;10906;45.194;5.684;2024-03-23T17:55:04;13.70;54.00
21489;DHT22;10906;45.194;5.684;2024-03-23T17:57:48;13.70;54.60
21489;DHT22;10906;45.194;5.684;2024-03-23T18:00:33;13.60;54.90
21489;DHT22;10906;45.194;5.684;2024-03-23T18:03:21;13.40;55.40
21489;DHT22;10906;45.194;5.684;2024-03-23T18:19:47;13.10;55.70
21489;DHT22;10906;45.194;5.684;2024-03-23T18:40:32;12.70;57.30
21489;DHT22;10906;45.194;5.684;2024-03-23T18:43:16;12.60;57.20
21489;DHT22;10906;45.194;5.684;2024-03-23T18:46:01;12.40;57.90
21489;DHT22;10906;45.194;5.684;2024-03-23T18:48:49;12.60;57.90
21489;DHT22;10906;45.194;5.684;2024-03-23T18:51:33;12.50;57.40
21489;DHT22;10906;45.194;5.684;2024-03-23T18:54:18;12.50;57.90
21489;DHT22;10906;45.194;5.684;2024-03-23T18:57:02;12.30;57.10
21489;DHT22;10906;45.194;5.684;2024-03-23T18:59:49;12.30;59.20
21489;DHT22;10906;45.194;5.684;2024-03-23T19:02:35;12.20;59.20
21489;DHT22;10906;45.194;5.684;2024-03-23T19:05:19;12.20;58.90
21489;DHT22;10906;45.194;5.684;2024-03-23T19:08:04;12.00;58.30
21489;DHT22;10906;45.194;5.684;2024-03-23T19:10:56;11.90;58.80
21489;DHT22;10906;45.194;5.684;2024-03-23T19:13:40;11.90;59.80
21489;DHT22;10906;45.194;5.684;2024-03-23T19:16:25;12.00;60.20
21489;DHT22;10906;45.194;5.684;2024-03-23T19:19:12;11.90;60.40
21489;DHT22;10906;45.194;5.684;2024-03-23T19:21:56;11.80;59.70
21489;DHT22;10906;45.194;5.684;2024-03-23T19:24:42;11.80;59.90
21489;DHT22;10906;45.194;5.684;2024-03-23T19:27:27;11.70;59.10
21489;DHT22;10906;45.194;5.684;2024-03-23T19:30:11;11.50;59.10
21489;DHT22;10906;45.194;5.684;2024-03-23T19:33:07;11.40;60.00
21489;DHT22;10906;45.194;5.684;2024-03-23T19:35:58;11.50;60.60
21489;DHT22;10906;45.194;5.684;2024-03-23T19:38:42;11.50;60.00
21489;DHT22;10906;45.194;5.684;2024-03-23T19:41:27;11.60;60.90
21489;DHT22;10906;45.194;5.684;2024-03-23T19:44:14;11.70;61.10
21489;DHT22;10906;45.194;5.684;2024-03-23T19:46:59;11.70;60.70
21489;DHT22;10906;45.194;5.684;2024-03-23T19:49:43;11.70;60.80
21489;DHT22;10906;45.194;5.684;2024-03-23T19:52:27;11.70;60.40
21489;DHT22;10906;45.194;5.684;2024-03-23T19:55:12;11.70;61.30
21489;DHT22;10906;45.194;5.684;2024-03-23T19:57:57;11.70;62.40
21489;DHT22;10906;45.194;5.684;2024-03-23T20:00:42;11.70;61.10
21489;DHT22;10906;45.194;5.684;2024-03-23T20:03:27;11.60;61.70
21489;DHT22;10906;45.194;5.684;2024-03-23T20:06:11;11.20;60.40
21489;DHT22;10906;45.194;5.684;2024-03-23T20:08:56;11.40;61.60
21489;DHT22;10906;45.194;5.684;2024-03-23T20:11:40;11.40;62.20
21489;DHT22;10906;45.194;5.684;2024-03-23T20:14:25;11.40;64.30
21489;DHT22;10906;45.194;5.684;2024-03-23T20:17:12;11.40;63.20
21489;DHT22;10906;45.194;5.684;2024-03-23T20:19:56;11.50;63.40
21489;DHT22;10906;45.194;5.684;2024-03-23T20:22:40;11.50;64.00
21489;DHT22;10906;45.194;5.684;2024-03-23T20:25:25;11.50;63.30
21489;DHT22;10906;45.194;5.684;2024-03-23T20:28:12;11.50;63.70
21489;DHT22;10906;45.194;5.684;2024-03-23T20:31:01;11.60;64.10
21489;DHT22;10906;45.194;5.684;2024-03-23T20:33:45;11.60;63.90
21489;DHT22;10906;45.194;5.684;2024-03-23T20:36:32;11.60;63.90
21489;DHT22;10906;45.194;5.684;2024-03-23T20:39:25;11.60;64.60
21489;DHT22;10906;45.194;5.684;2024-03-23T20:42:10;11.60;63.20
21489;DHT22;10906;45.194;5.684;2024-03-23T20:44:55;11.50;63.60
21489;DHT22;10906;45.194;5.684;2024-03-23T20:47:42;11.50;63.90
21489;DHT22;10906;45.194;5.684;2024-03-23T20:50:27;11.50;63.90
21489;DHT22;10906;45.194;5.684;2024-03-23T20:53:12;11.50;65.00
21489;DHT22;10906;45.194;5.684;2024-03-23T20:56:01;11.50;64.40
21489;DHT22;10906;45.194;5.684;2024-03-23T20:58:49;11.60;65.40
21489;DHT22;10906;45.194;5.684;2024-03-23T21:01:39;11.60;64.60
21489;DHT22;10906;45.194;5.684;2024-03-23T21:04:27;11.60;64.40
21489;DHT22;10906;45.194;5.684;2024-03-23T21:07:19;11.50;63.10
21489;DHT22;10906;45.194;5.684;2024-03-23T21:10:05;11.40;63.50
21489;DHT22;10906;45.194;5.684;2024-03-23T21:12:50;11.50;64.30
21489;DHT22;10906;45.194;5.684;2024-03-23T21:15:34;11.40;64.40
21489;DHT22;10906;45.194;5.684;2024-03-23T21:18:19;11.50;64.60
21489;DHT22;10906;45.194;5.684;2024-03-23T21:21:04;12.60;66.00
21489;DHT22;10906;45.194;5.684;2024-03-23T21:23:49;11.40;65.50
21489;DHT22;10906;45.194;5.684;2024-03-23T21:26:34;11.40;64.80
21489;DHT22;10906;45.194;5.684;2024-03-23T21:29:22;11.50;66.80
21489;DHT22;10906;45.194;5.684;2024-03-23T21:32:07;11.40;65.20
21489;DHT22;10906;45.194;5.684;2024-03-23T21:34:51;11.40;65.50
21489;DHT22;10906;45.194;5.684;2024-03-23T21:37:36;11.30;65.70
21489;DHT22;10906;45.194;5.684;2024-03-23T21:40:21;11.40;67.00
21489;DHT22;10906;45.194;5.684;2024-03-23T21:43:05;11.40;67.00
21489;DHT22;10906;45.194;5.684;2024-03-23T21:45:55;11.30;66.90
21489;DHT22;10906;45.194;5.684;2024-03-23T21:48:39;11.30;67.00
21489;DHT22;10906;45.194;5.684;2024-03-23T21:51:28;11.30;67.50
21489;DHT22;10906;45.194;5.684;2024-03-23T21:54:13;11.20;67.10
21489;DHT22;10906;45.194;5.684;2024-03-23T21:56:57;11.10;66.90
21489;DHT22;10906;45.194;5.684;2024-03-23T21:59:42;11.10;68.20
21489;DHT22;10906;45.194;5.684;2024-03-23T22:02:26;11.00;66.50
21489;DHT22;10906;45.194;5.684;2024-03-23T22:05:15;10.90;66.20
21489;DHT22;10906;45.194;5.684;2024-03-23T22:08:00;10.80;66.40
21489;DHT22;10906;45.194;5.684;2024-03-23T22:10:44;10.70;66.20
21489;DHT22;10906;45.194;5.684;2024-03-23T22:13:29;10.80;67.70
21489;DHT22;10906;45.194;5.684;2024-03-23T22:16:14;10.80;67.90
21489;DHT22;10906;45.194;5.684;2024-03-23T22:18:59;10.80;68.30
21489;DHT22;10906;45.194;5.684;2024-03-23T22:21:44;10.80;68.40
21489;DHT22;10906;45.194;5.684;2024-03-23T22:24:28;10.80;69.50
21489;DHT22;10906;45.194;5.684;2024-03-23T22:27:13;10.90;70.10
21489;DHT22;10906;45.194;5.684;2024-03-23T22:29:58;10.80;69.40
21489;DHT22;10906;45.194;5.684;2024-03-23T22:32:45;10.80;70.10
21489;DHT22;10906;45.194;5.684;2024-03-23T22:35:30;10.80;70.60
21489;DHT22;10906;45.194;5.684;2024-03-23T22:38:14;11.60;70.90
21489;DHT22;10906;45.194;5.684;2024-03-23T22:41:01;10.80;69.40
21489;DHT22;10906;45.194;5.684;2024-03-23T22:43:46;10.80;70.10
21489;DHT22;10906;45.194;5.684;2024-03-23T22:46:30;10.80;70.00
21489;DHT22;10906;45.194;5.684;2024-03-23T22:49:15;10.80;69.70
21489;DHT22;10906;45.194;5.684;2024-03-23T22:51:59;10.80;70.60
21489;DHT22;10906;45.194;5.684;2024-03-23T22:54:44;10.80;70.30
21489;DHT22;10906;45.194;5.684;2024-03-23T22:57:28;10.80;69.70
